首页
METAR-TAF:

METAR-TAF

机场 :

Kenosha, 威斯康辛州, 美国

纬度: 42-35-42N, 经度: 087-56-17W, 海拔: 226米

当前天气观测

该预报发布于1小时和0分钟前的06:53 UTC
风速8节,风向
温度 3°C
湿度 75%
气压 1020 hPa
能見度: 16.1公里
阴天层高于1600英尺

METAR: KENW 310653Z AUTO 01008KT 10SM OVC016 03/M01 A3013 RMK AO2 SLP209 T00331011

时间: 02:53 (07:53 UTC)

预报

该预报发布于2小时和33分钟前的05:20 UTC
预报有效从31日的 06点(UTC)到 01日的 06点(UTC)
风速7节,风向东北
能見度: 10公里
阴天层高于1500英尺
从 31日的 1300点(UTC)
风速9节,风向北转东北
能見度: 10公里
阴天层高于1200英尺
从 31日的 2100点(UTC)
风速10节,风向北转东北
能見度: 10公里
多云层高于2500英尺
从 01日的 0300点(UTC)
风速5节,风向
能見度: 10公里
多云层高于3000英尺

TAF: KENW 310520Z 3106/0106 04007KT P6SM OVC015 FM311300 02009KT P6SM OVC012 FM312100 02010KT P6SM BKN025 FM010300 01005KT P6SM BKN030

超过4000个机场的气象观测和天气预报(METAR&TAF报告)。

可查询的气象台以黄色和红色小点在地图上表示。

将鼠标移到小点上方,可查看气象台名称。

然后点击查看天气观测和预报。

如需切换地图:点击带黑十字的绿色按钮放大地图;点击带横线的绿色按钮缩小地图;或者点击绿色箭头查看邻近地区的地图。


METAR-TAF: